sensor_id;sensor_type;location;lat;lon;timestamp;P1;durP1;ratioP1;P2;durP2;ratioP2
12369;SDS011;6249;52.128;9.986;2023-02-28T00:01:04;7.13;;;3.20;;
12369;SDS011;6249;52.128;9.986;2023-02-28T00:04:25;7.77;;;3.60;;
12369;SDS011;6249;52.128;9.986;2023-02-28T00:07:46;9.27;;;4.57;;
12369;SDS011;6249;52.128;9.986;2023-02-28T00:11:08;12.73;;;4.93;;
12369;SDS011;6249;52.128;9.986;2023-02-28T00:14:31;14.23;;;5.67;;
12369;SDS011;6249;52.128;9.986;2023-02-28T00:17:54;9.77;;;4.80;;
12369;SDS011;6249;52.128;9.986;2023-02-28T00:21:15;14.33;;;6.10;;
12369;SDS011;6249;52.128;9.986;2023-02-28T00:24:36;11.60;;;5.40;;
12369;SDS011;6249;52.128;9.986;2023-02-28T00:27:59;12.43;;;5.20;;
12369;SDS011;6249;52.128;9.986;2023-02-28T00:31:19;9.63;;;5.10;;
12369;SDS011;6249;52.128;9.986;2023-02-28T00:34:40;9.03;;;4.87;;
12369;SDS011;6249;52.128;9.986;2023-02-28T00:38:02;9.67;;;5.07;;
12369;SDS011;6249;52.128;9.986;2023-02-28T00:41:23;9.47;;;4.77;;
12369;SDS011;6249;52.128;9.986;2023-02-28T00:44:44;9.77;;;4.50;;
12369;SDS011;6249;52.128;9.986;2023-02-28T00:48:04;11.00;;;5.50;;
12369;SDS011;6249;52.128;9.986;2023-02-28T00:51:26;9.00;;;4.17;;
12369;SDS011;6249;52.128;9.986;2023-02-28T00:54:46;8.40;;;4.03;;
12369;SDS011;6249;52.128;9.986;2023-02-28T00:58:07;8.70;;;3.60;;
12369;SDS011;6249;52.128;9.986;2023-02-28T01:01:27;9.03;;;3.73;;
12369;SDS011;6249;52.128;9.986;2023-02-28T01:04:48;9.03;;;4.00;;
12369;SDS011;6249;52.128;9.986;2023-02-28T01:08:11;13.37;;;3.10;;
12369;SDS011;6249;52.128;9.986;2023-02-28T01:11:36;6.30;;;2.97;;
12369;SDS011;6249;52.128;9.986;2023-02-28T01:14:56;9.80;;;3.40;;
12369;SDS011;6249;52.128;9.986;2023-02-28T01:18:17;5.77;;;2.60;;
12369;SDS011;6249;52.128;9.986;2023-02-28T01:21:38;7.10;;;3.10;;
12369;SDS011;6249;52.128;9.986;2023-02-28T01:24:59;6.60;;;2.60;;
12369;SDS011;6249;52.128;9.986;2023-02-28T01:28:19;4.13;;;2.20;;
12369;SDS011;6249;52.128;9.986;2023-02-28T01:31:40;7.30;;;2.77;;
12369;SDS011;6249;52.128;9.986;2023-02-28T01:35:01;6.87;;;2.87;;
12369;SDS011;6249;52.128;9.986;2023-02-28T01:38:22;7.50;;;2.97;;
12369;SDS011;6249;52.128;9.986;2023-02-28T01:41:45;6.77;;;2.80;;
12369;SDS011;6249;52.128;9.986;2023-02-28T01:45:48;6.20;;;2.80;;
12369;SDS011;6249;52.128;9.986;2023-02-28T01:48:52;7.47;;;2.50;;
12369;SDS011;6249;52.128;9.986;2023-02-28T01:52:25;6.57;;;2.70;;
12369;SDS011;6249;52.128;9.986;2023-02-28T01:55:47;5.50;;;2.63;;
12369;SDS011;6249;52.128;9.986;2023-02-28T01:59:10;7.43;;;2.90;;
12369;SDS011;6249;52.128;9.986;2023-02-28T02:02:43;4.80;;;2.77;;
12369;SDS011;6249;52.128;9.986;2023-02-28T02:06:09;8.73;;;3.20;;
12369;SDS011;6249;52.128;9.986;2023-02-28T02:09:30;5.97;;;3.20;;
12369;SDS011;6249;52.128;9.986;2023-02-28T02:31:39;5.90;;;3.10;;
12369;SDS011;6249;52.128;9.986;2023-02-28T02:42:33;6.70;;;2.90;;
12369;SDS011;6249;52.128;9.986;2023-02-28T02:46:06;12.97;;;3.23;;
12369;SDS011;6249;52.128;9.986;2023-02-28T02:49:39;6.50;;;3.30;;
12369;SDS011;6249;52.128;9.986;2023-02-28T02:53:05;5.17;;;2.83;;
12369;SDS011;6249;52.128;9.986;2023-02-28T02:56:31;8.33;;;3.43;;
12369;SDS011;6249;52.128;9.986;2023-02-28T02:59:55;5.97;;;3.13;;
12369;SDS011;6249;52.128;9.986;2023-02-28T03:03:20;6.60;;;3.33;;
12369;SDS011;6249;52.128;9.986;2023-02-28T03:06:50;7.17;;;2.90;;
12369;SDS011;6249;52.128;9.986;2023-02-28T03:24:19;5.50;;;3.13;;
12369;SDS011;6249;52.128;9.986;2023-02-28T03:35:17;5.97;;;3.07;;
12369;SDS011;6249;52.128;9.986;2023-02-28T03:38:51;13.10;;;3.10;;
12369;SDS011;6249;52.128;9.986;2023-02-28T03:42:22;6.60;;;2.77;;
12369;SDS011;6249;52.128;9.986;2023-02-28T03:45:48;7.17;;;2.73;;
12369;SDS011;6249;52.128;9.986;2023-02-28T03:49:17;5.97;;;2.70;;
12369;SDS011;6249;52.128;9.986;2023-02-28T03:53:05;6.27;;;3.23;;
12369;SDS011;6249;52.128;9.986;2023-02-28T03:56:47;6.53;;;2.80;;
12369;SDS011;6249;52.128;9.986;2023-02-28T04:00:27;7.80;;;3.60;;
12369;SDS011;6249;52.128;9.986;2023-02-28T04:03:59;6.17;;;2.80;;
12369;SDS011;6249;52.128;9.986;2023-02-28T04:07:25;6.50;;;2.33;;
12369;SDS011;6249;52.128;9.986;2023-02-28T04:10:52;6.27;;;2.70;;
12369;SDS011;6249;52.128;9.986;2023-02-28T04:14:17;7.30;;;3.03;;
12369;SDS011;6249;52.128;9.986;2023-02-28T04:17:38;5.60;;;2.90;;
12369;SDS011;6249;52.128;9.986;2023-02-28T04:20:59;5.93;;;2.80;;
12369;SDS011;6249;52.128;9.986;2023-02-28T04:24:21;5.90;;;2.73;;
12369;SDS011;6249;52.128;9.986;2023-02-28T04:27:43;7.43;;;3.30;;
12369;SDS011;6249;52.128;9.986;2023-02-28T04:31:04;4.40;;;2.57;;
12369;SDS011;6249;52.128;9.986;2023-02-28T04:34:26;6.63;;;3.50;;
12369;SDS011;6249;52.128;9.986;2023-02-28T04:37:50;4.50;;;2.70;;
12369;SDS011;6249;52.128;9.986;2023-02-28T04:41:11;4.50;;;2.17;;
12369;SDS011;6249;52.128;9.986;2023-02-28T04:44:34;6.30;;;2.93;;
12369;SDS011;6249;52.128;9.986;2023-02-28T04:47:55;9.40;;;3.20;;
12369;SDS011;6249;52.128;9.986;2023-02-28T04:51:18;6.97;;;3.23;;
12369;SDS011;6249;52.128;9.986;2023-02-28T04:54:41;6.17;;;3.13;;
12369;SDS011;6249;52.128;9.986;2023-02-28T04:58:02;5.60;;;2.60;;
12369;SDS011;6249;52.128;9.986;2023-02-28T05:01:23;7.73;;;3.33;;
12369;SDS011;6249;52.128;9.986;2023-02-28T05:04:49;6.33;;;3.10;;
12369;SDS011;6249;52.128;9.986;2023-02-28T05:08:09;6.17;;;3.03;;
12369;SDS011;6249;52.128;9.986;2023-02-28T05:11:34;6.57;;;3.70;;
12369;SDS011;6249;52.128;9.986;2023-02-28T05:14:58;6.80;;;3.40;;
12369;SDS011;6249;52.128;9.986;2023-02-28T05:18:18;6.20;;;3.27;;
12369;SDS011;6249;52.128;9.986;2023-02-28T05:21:49;7.23;;;3.63;;
12369;SDS011;6249;52.128;9.986;2023-02-28T05:25:13;7.80;;;3.90;;
12369;SDS011;6249;52.128;9.986;2023-02-28T05:28:40;6.80;;;3.77;;
12369;SDS011;6249;52.128;9.986;2023-02-28T05:32:00;9.07;;;4.13;;
12369;SDS011;6249;52.128;9.986;2023-02-28T05:35:21;12.20;;;4.13;;
12369;SDS011;6249;52.128;9.986;2023-02-28T05:38:41;10.03;;;4.60;;
12369;SDS011;6249;52.128;9.986;2023-02-28T05:42:05;13.43;;;4.60;;
12369;SDS011;6249;52.128;9.986;2023-02-28T05:45:29;14.37;;;5.00;;
12369;SDS011;6249;52.128;9.986;2023-02-28T05:48:51;10.37;;;4.23;;
12369;SDS011;6249;52.128;9.986;2023-02-28T05:52:15;16.17;;;4.90;;
12369;SDS011;6249;52.128;9.986;2023-02-28T05:55:37;8.33;;;4.20;;
12369;SDS011;6249;52.128;9.986;2023-02-28T05:58:57;19.67;;;8.40;;
12369;SDS011;6249;52.128;9.986;2023-02-28T06:02:18;11.43;;;4.93;;
12369;SDS011;6249;52.128;9.986;2023-02-28T06:05:41;8.73;;;4.93;;
12369;SDS011;6249;52.128;9.986;2023-02-28T06:09:02;7.93;;;4.37;;
12369;SDS011;6249;52.128;9.986;2023-02-28T06:12:24;10.13;;;4.83;;
12369;SDS011;6249;52.128;9.986;2023-02-28T06:15:47;8.23;;;4.53;;
12369;SDS011;6249;52.128;9.986;2023-02-28T06:19:10;10.07;;;4.67;;
12369;SDS011;6249;52.128;9.986;2023-02-28T06:22:31;8.53;;;4.80;;
12369;SDS011;6249;52.128;9.986;2023-02-28T06:25:57;7.53;;;4.47;;
12369;SDS011;6249;52.128;9.986;2023-02-28T06:29:18;7.00;;;3.50;;
12369;SDS011;6249;52.128;9.986;2023-02-28T06:32:39;7.20;;;3.90;;
12369;SDS011;6249;52.128;9.986;2023-02-28T06:35:59;6.90;;;3.60;;
12369;SDS011;6249;52.128;9.986;2023-02-28T06:39:23;7.73;;;3.87;;
12369;SDS011;6249;52.128;9.986;2023-02-28T06:42:43;6.77;;;3.33;;
12369;SDS011;6249;52.128;9.986;2023-02-28T06:46:05;11.40;;;5.13;;
12369;SDS011;6249;52.128;9.986;2023-02-28T06:49:27;11.07;;;4.20;;
12369;SDS011;6249;52.128;9.986;2023-02-28T06:52:47;8.87;;;4.37;;
12369;SDS011;6249;52.128;9.986;2023-02-28T06:56:09;6.63;;;3.77;;
12369;SDS011;6249;52.128;9.986;2023-02-28T06:59:32;7.50;;;3.40;;
12369;SDS011;6249;52.128;9.986;2023-02-28T07:02:52;9.13;;;4.07;;
12369;SDS011;6249;52.128;9.986;2023-02-28T07:06:15;8.10;;;4.50;;
12369;SDS011;6249;52.128;9.986;2023-02-28T07:09:39;7.83;;;4.27;;
12369;SDS011;6249;52.128;9.986;2023-02-28T07:13:00;14.40;;;4.67;;
12369;SDS011;6249;52.128;9.986;2023-02-28T07:16:21;11.60;;;4.37;;
12369;SDS011;6249;52.128;9.986;2023-02-28T07:19:44;7.10;;;3.97;;
12369;SDS011;6249;52.128;9.986;2023-02-28T07:23:05;12.60;;;5.80;;
12369;SDS011;6249;52.128;9.986;2023-02-28T07:26:25;9.40;;;5.47;;
12369;SDS011;6249;52.128;9.986;2023-02-28T07:29:46;8.97;;;4.83;;
12369;SDS011;6249;52.128;9.986;2023-02-28T07:33:07;9.20;;;4.73;;
12369;SDS011;6249;52.128;9.986;2023-02-28T07:36:30;9.80;;;5.20;;
12369;SDS011;6249;52.128;9.986;2023-02-28T07:39:50;7.73;;;4.37;;
12369;SDS011;6249;52.128;9.986;2023-02-28T07:43:13;12.63;;;4.83;;
12369;SDS011;6249;52.128;9.986;2023-02-28T07:46:34;8.80;;;4.17;;
12369;SDS011;6249;52.128;9.986;2023-02-28T07:49:57;8.80;;;4.10;;
12369;SDS011;6249;52.128;9.986;2023-02-28T07:53:18;10.37;;;4.70;;
12369;SDS011;6249;52.128;9.986;2023-02-28T07:56:38;7.57;;;3.80;;
12369;SDS011;6249;52.128;9.986;2023-02-28T07:59:59;9.17;;;4.80;;
12369;SDS011;6249;52.128;9.986;2023-02-28T08:03:20;10.23;;;4.30;;
12369;SDS011;6249;52.128;9.986;2023-02-28T08:06:42;8.97;;;4.50;;
12369;SDS011;6249;52.128;9.986;2023-02-28T08:10:02;9.87;;;4.10;;
12369;SDS011;6249;52.128;9.986;2023-02-28T08:13:25;7.30;;;4.33;;
12369;SDS011;6249;52.128;9.986;2023-02-28T08:16:49;9.67;;;5.17;;
12369;SDS011;6249;52.128;9.986;2023-02-28T08:20:10;9.07;;;4.23;;
12369;SDS011;6249;52.128;9.986;2023-02-28T08:23:31;9.80;;;4.20;;
12369;SDS011;6249;52.128;9.986;2023-02-28T08:26:54;9.60;;;4.60;;
12369;SDS011;6249;52.128;9.986;2023-02-28T08:30:15;9.80;;;4.20;;
12369;SDS011;6249;52.128;9.986;2023-02-28T08:33:36;8.67;;;4.30;;
12369;SDS011;6249;52.128;9.986;2023-02-28T08:36:58;9.87;;;4.83;;
12369;SDS011;6249;52.128;9.986;2023-02-28T08:40:19;10.00;;;5.27;;
12369;SDS011;6249;52.128;9.986;2023-02-28T08:43:40;8.47;;;4.73;;
12369;SDS011;6249;52.128;9.986;2023-02-28T08:47:01;9.57;;;4.57;;
12369;SDS011;6249;52.128;9.986;2023-02-28T08:50:22;9.80;;;4.37;;
12369;SDS011;6249;52.128;9.986;2023-02-28T08:53:45;10.07;;;4.50;;
12369;SDS011;6249;52.128;9.986;2023-02-28T08:57:05;11.43;;;5.13;;
12369;SDS011;6249;52.128;9.986;2023-02-28T09:00:28;6.33;;;4.13;;
12369;SDS011;6249;52.128;9.986;2023-02-28T09:03:49;8.63;;;3.83;;
12369;SDS011;6249;52.128;9.986;2023-02-28T09:07:11;7.33;;;4.27;;
12369;SDS011;6249;52.128;9.986;2023-02-28T09:10:34;17.10;;;4.77;;
12369;SDS011;6249;52.128;9.986;2023-02-28T09:13:54;7.63;;;4.80;;
12369;SDS011;6249;52.128;9.986;2023-02-28T09:17:15;6.50;;;4.30;;
12369;SDS011;6249;52.128;9.986;2023-02-28T09:20:40;7.83;;;4.13;;
12369;SDS011;6249;52.128;9.986;2023-02-28T09:24:01;7.20;;;4.20;;
12369;SDS011;6249;52.128;9.986;2023-02-28T09:27:22;7.80;;;4.07;;
12369;SDS011;6249;52.128;9.986;2023-02-28T09:30:46;12.60;;;4.50;;
12369;SDS011;6249;52.128;9.986;2023-02-28T09:34:11;9.57;;;3.70;;
12369;SDS011;6249;52.128;9.986;2023-02-28T09:37:32;6.70;;;3.83;;
12369;SDS011;6249;52.128;9.986;2023-02-28T09:40:59;9.70;;;4.20;;
12369;SDS011;6249;52.128;9.986;2023-02-28T09:44:43;12.53;;;4.30;;
12369;SDS011;6249;52.128;9.986;2023-02-28T09:48:18;10.43;;;4.20;;
12369;SDS011;6249;52.128;9.986;2023-02-28T09:55:28;6.97;;;3.70;;
12369;SDS011;6249;52.128;9.986;2023-02-28T09:59:17;7.70;;;4.20;;
12369;SDS011;6249;52.128;9.986;2023-02-28T10:06:23;7.77;;;3.07;;
12369;SDS011;6249;52.128;9.986;2023-02-28T10:09:53;8.00;;;3.13;;
12369;SDS011;6249;52.128;9.986;2023-02-28T10:16:58;14.50;;;3.90;;
12369;SDS011;6249;52.128;9.986;2023-02-28T10:20:20;7.00;;;3.07;;
12369;SDS011;6249;52.128;9.986;2023-02-28T10:23:49;8.30;;;3.97;;
12369;SDS011;6249;52.128;9.986;2023-02-28T10:27:20;5.73;;;3.17;;
12369;SDS011;6249;52.128;9.986;2023-02-28T10:30:42;8.50;;;2.87;;
12369;SDS011;6249;52.128;9.986;2023-02-28T10:34:07;10.47;;;2.90;;
12369;SDS011;6249;52.128;9.986;2023-02-28T10:37:32;5.67;;;2.50;;
12369;SDS011;6249;52.128;9.986;2023-02-28T10:41:08;6.80;;;3.10;;
12369;SDS011;6249;52.128;9.986;2023-02-28T10:44:31;6.87;;;3.00;;
12369;SDS011;6249;52.128;9.986;2023-02-28T10:51:49;6.50;;;2.70;;
12369;SDS011;6249;52.128;9.986;2023-02-28T10:55:15;4.67;;;2.30;;
12369;SDS011;6249;52.128;9.986;2023-02-28T10:58:59;4.97;;;2.17;;
12369;SDS011;6249;52.128;9.986;2023-02-28T11:02:42;4.07;;;2.10;;
12369;SDS011;6249;52.128;9.986;2023-02-28T11:06:29;4.90;;;2.40;;
12369;SDS011;6249;52.128;9.986;2023-02-28T11:09:52;5.00;;;2.40;;
12369;SDS011;6249;52.128;9.986;2023-02-28T11:13:20;5.03;;;2.20;;
12369;SDS011;6249;52.128;9.986;2023-02-28T11:16:45;4.77;;;2.03;;
12369;SDS011;6249;52.128;9.986;2023-02-28T11:20:17;6.13;;;2.20;;
12369;SDS011;6249;52.128;9.986;2023-02-28T11:23:44;5.13;;;2.27;;
12369;SDS011;6249;52.128;9.986;2023-02-28T11:34:36;4.87;;;2.17;;
12369;SDS011;6249;52.128;9.986;2023-02-28T11:37:57;8.03;;;3.10;;
12369;SDS011;6249;52.128;9.986;2023-02-28T11:45:12;7.30;;;2.70;;
12369;SDS011;6249;52.128;9.986;2023-02-28T11:52:55;8.00;;;1.97;;
12369;SDS011;6249;52.128;9.986;2023-02-28T11:59:54;5.03;;;1.90;;
12369;SDS011;6249;52.128;9.986;2023-02-28T12:07:49;5.47;;;2.10;;
12369;SDS011;6249;52.128;9.986;2023-02-28T12:15:02;5.30;;;2.10;;
12369;SDS011;6249;52.128;9.986;2023-02-28T12:22:27;8.20;;;2.27;;
12369;SDS011;6249;52.128;9.986;2023-02-28T12:32:49;4.77;;;1.83;;
12369;SDS011;6249;52.128;9.986;2023-02-28T12:36:18;4.60;;;2.00;;
12369;SDS011;6249;52.128;9.986;2023-02-28T12:39:44;6.83;;;2.13;;
12369;SDS011;6249;52.128;9.986;2023-02-28T12:43:09;5.00;;;1.97;;
12369;SDS011;6249;52.128;9.986;2023-02-28T12:46:33;5.47;;;2.40;;
12369;SDS011;6249;52.128;9.986;2023-02-28T12:50:09;5.00;;;2.63;;
12369;SDS011;6249;52.128;9.986;2023-02-28T13:04:29;4.90;;;2.00;;
12369;SDS011;6249;52.128;9.986;2023-02-28T13:18:44;4.47;;;2.07;;
12369;SDS011;6249;52.128;9.986;2023-02-28T13:22:15;7.53;;;2.70;;
12369;SDS011;6249;52.128;9.986;2023-02-28T13:32:33;3.90;;;2.20;;
12369;SDS011;6249;52.128;9.986;2023-02-28T13:36:10;4.77;;;2.10;;
12369;SDS011;6249;52.128;9.986;2023-02-28T13:42:54;4.10;;;2.57;;
12369;SDS011;6249;52.128;9.986;2023-02-28T13:46:17;4.77;;;2.60;;
12369;SDS011;6249;52.128;9.986;2023-02-28T13:49:40;7.40;;;2.77;;
12369;SDS011;6249;52.128;9.986;2023-02-28T13:56:44;6.63;;;2.50;;
12369;SDS011;6249;52.128;9.986;2023-02-28T14:07:24;5.67;;;2.50;;
12369;SDS011;6249;52.128;9.986;2023-02-28T14:10:51;5.47;;;2.40;;
12369;SDS011;6249;52.128;9.986;2023-02-28T14:17:57;6.00;;;2.70;;
12369;SDS011;6249;52.128;9.986;2023-02-28T14:32:06;5.03;;;2.50;;
12369;SDS011;6249;52.128;9.986;2023-02-28T14:39:22;6.80;;;2.90;;
12369;SDS011;6249;52.128;9.986;2023-02-28T14:43:00;5.43;;;2.83;;
12369;SDS011;6249;52.128;9.986;2023-02-28T14:46:26;5.70;;;2.23;;
12369;SDS011;6249;52.128;9.986;2023-02-28T14:49:56;6.33;;;3.20;;
12369;SDS011;6249;52.128;9.986;2023-02-28T14:53:19;7.17;;;2.73;;
12369;SDS011;6249;52.128;9.986;2023-02-28T14:56:42;6.50;;;2.90;;
12369;SDS011;6249;52.128;9.986;2023-02-28T15:03:38;5.40;;;3.00;;
12369;SDS011;6249;52.128;9.986;2023-02-28T15:07:07;5.80;;;2.73;;
12369;SDS011;6249;52.128;9.986;2023-02-28T15:10:34;5.23;;;2.63;;
12369;SDS011;6249;52.128;9.986;2023-02-28T15:13:57;5.73;;;2.90;;
12369;SDS011;6249;52.128;9.986;2023-02-28T15:17:20;5.40;;;3.03;;
12369;SDS011;6249;52.128;9.986;2023-02-28T15:20:44;6.80;;;3.07;;
12369;SDS011;6249;52.128;9.986;2023-02-28T15:24:19;6.80;;;2.60;;
12369;SDS011;6249;52.128;9.986;2023-02-28T15:27:54;6.03;;;2.97;;
12369;SDS011;6249;52.128;9.986;2023-02-28T15:31:21;5.70;;;2.70;;
12369;SDS011;6249;52.128;9.986;2023-02-28T15:34:48;8.43;;;2.57;;
12369;SDS011;6249;52.128;9.986;2023-02-28T15:41:38;8.47;;;2.87;;
12369;SDS011;6249;52.128;9.986;2023-02-28T15:45:01;5.67;;;2.93;;
12369;SDS011;6249;52.128;9.986;2023-02-28T15:48:22;8.10;;;2.90;;
12369;SDS011;6249;52.128;9.986;2023-02-28T15:51:46;6.33;;;3.10;;
12369;SDS011;6249;52.128;9.986;2023-02-28T15:55:10;4.80;;;2.30;;
12369;SDS011;6249;52.128;9.986;2023-02-28T15:58:44;6.87;;;3.10;;
12369;SDS011;6249;52.128;9.986;2023-02-28T16:06:08;8.93;;;3.40;;
12369;SDS011;6249;52.128;9.986;2023-02-28T16:09:50;5.03;;;2.40;;
12369;SDS011;6249;52.128;9.986;2023-02-28T16:13:13;8.43;;;3.20;;
12369;SDS011;6249;52.128;9.986;2023-02-28T16:16:41;8.33;;;3.77;;
12369;SDS011;6249;52.128;9.986;2023-02-28T16:20:12;5.10;;;3.13;;
12369;SDS011;6249;52.128;9.986;2023-02-28T16:23:34;8.67;;;3.63;;
12369;SDS011;6249;52.128;9.986;2023-02-28T16:26:57;5.53;;;2.70;;
12369;SDS011;6249;52.128;9.986;2023-02-28T16:30:21;5.97;;;3.17;;
12369;SDS011;6249;52.128;9.986;2023-02-28T16:33:48;6.20;;;3.70;;
12369;SDS011;6249;52.128;9.986;2023-02-28T16:37:13;6.50;;;3.60;;
12369;SDS011;6249;52.128;9.986;2023-02-28T16:40:40;6.87;;;3.20;;
12369;SDS011;6249;52.128;9.986;2023-02-28T16:44:12;7.10;;;3.33;;
12369;SDS011;6249;52.128;9.986;2023-02-28T16:47:40;6.27;;;3.77;;
12369;SDS011;6249;52.128;9.986;2023-02-28T16:51:01;5.13;;;2.90;;
12369;SDS011;6249;52.128;9.986;2023-02-28T16:54:24;5.60;;;3.20;;
12369;SDS011;6249;52.128;9.986;2023-02-28T16:57:45;5.40;;;3.10;;
12369;SDS011;6249;52.128;9.986;2023-02-28T17:01:11;9.20;;;3.77;;
12369;SDS011;6249;52.128;9.986;2023-02-28T17:04:37;7.60;;;4.10;;
12369;SDS011;6249;52.128;9.986;2023-02-28T17:07:57;8.17;;;4.00;;
12369;SDS011;6249;52.128;9.986;2023-02-28T17:11:18;8.23;;;4.10;;
12369;SDS011;6249;52.128;9.986;2023-02-28T17:14:39;13.13;;;8.40;;
12369;SDS011;6249;52.128;9.986;2023-02-28T17:18:05;21.70;;;12.73;;
12369;SDS011;6249;52.128;9.986;2023-02-28T17:21:26;12.37;;;6.67;;
12369;SDS011;6249;52.128;9.986;2023-02-28T17:24:48;12.37;;;5.47;;
12369;SDS011;6249;52.128;9.986;2023-02-28T17:28:09;11.60;;;5.43;;
12369;SDS011;6249;52.128;9.986;2023-02-28T17:31:29;13.90;;;6.87;;
12369;SDS011;6249;52.128;9.986;2023-02-28T17:34:52;13.70;;;7.80;;
12369;SDS011;6249;52.128;9.986;2023-02-28T17:38:17;12.97;;;6.80;;
12369;SDS011;6249;52.128;9.986;2023-02-28T17:41:42;17.43;;;8.87;;
12369;SDS011;6249;52.128;9.986;2023-02-28T17:45:05;23.60;;;12.73;;
12369;SDS011;6249;52.128;9.986;2023-02-28T17:48:26;14.10;;;8.70;;
12369;SDS011;6249;52.128;9.986;2023-02-28T17:51:50;20.30;;;10.67;;
12369;SDS011;6249;52.128;9.986;2023-02-28T17:55:12;30.10;;;13.50;;
12369;SDS011;6249;52.128;9.986;2023-02-28T17:58:36;46.53;;;21.63;;
12369;SDS011;6249;52.128;9.986;2023-02-28T18:01:59;76.87;;;32.77;;
12369;SDS011;6249;52.128;9.986;2023-02-28T18:05:23;63.60;;;27.20;;
12369;SDS011;6249;52.128;9.986;2023-02-28T18:08:43;48.93;;;20.80;;
12369;SDS011;6249;52.128;9.986;2023-02-28T18:12:07;22.13;;;11.77;;
12369;SDS011;6249;52.128;9.986;2023-02-28T18:15:30;25.43;;;11.23;;
12369;SDS011;6249;52.128;9.986;2023-02-28T18:18:56;24.77;;;12.47;;
12369;SDS011;6249;52.128;9.986;2023-02-28T18:22:19;18.33;;;10.43;;
12369;SDS011;6249;52.128;9.986;2023-02-28T18:25:39;19.00;;;9.40;;
12369;SDS011;6249;52.128;9.986;2023-02-28T18:29:00;16.20;;;8.20;;
12369;SDS011;6249;52.128;9.986;2023-02-28T18:32:24;20.87;;;10.23;;
12369;SDS011;6249;52.128;9.986;2023-02-28T18:35:44;36.53;;;15.77;;
12369;SDS011;6249;52.128;9.986;2023-02-28T18:39:07;23.97;;;10.37;;
12369;SDS011;6249;52.128;9.986;2023-02-28T18:42:31;13.70;;;7.60;;
12369;SDS011;6249;52.128;9.986;2023-02-28T18:45:54;13.10;;;7.83;;
12369;SDS011;6249;52.128;9.986;2023-02-28T18:49:22;19.13;;;9.90;;
12369;SDS011;6249;52.128;9.986;2023-02-28T18:52:42;18.20;;;8.90;;
12369;SDS011;6249;52.128;9.986;2023-02-28T18:56:06;27.57;;;14.00;;
12369;SDS011;6249;52.128;9.986;2023-02-28T18:59:30;19.57;;;9.87;;
12369;SDS011;6249;52.128;9.986;2023-02-28T19:02:51;21.50;;;11.30;;
12369;SDS011;6249;52.128;9.986;2023-02-28T19:06:14;22.40;;;11.60;;
12369;SDS011;6249;52.128;9.986;2023-02-28T19:09:38;19.63;;;11.20;;
12369;SDS011;6249;52.128;9.986;2023-02-28T19:13:01;21.30;;;10.30;;
12369;SDS011;6249;52.128;9.986;2023-02-28T19:16:25;15.33;;;8.90;;
12369;SDS011;6249;52.128;9.986;2023-02-28T19:19:46;16.20;;;8.20;;
12369;SDS011;6249;52.128;9.986;2023-02-28T19:23:09;20.07;;;10.00;;
12369;SDS011;6249;52.128;9.986;2023-02-28T19:26:34;17.17;;;9.37;;
12369;SDS011;6249;52.128;9.986;2023-02-28T19:29:54;19.90;;;9.07;;
12369;SDS011;6249;52.128;9.986;2023-02-28T19:33:20;17.70;;;9.40;;
12369;SDS011;6249;52.128;9.986;2023-02-28T19:36:41;18.70;;;9.30;;
12369;SDS011;6249;52.128;9.986;2023-02-28T19:40:05;17.00;;;9.60;;
12369;SDS011;6249;52.128;9.986;2023-02-28T19:43:29;24.50;;;12.27;;
12369;SDS011;6249;52.128;9.986;2023-02-28T19:46:50;35.43;;;18.97;;
12369;SDS011;6249;52.128;9.986;2023-02-28T19:50:11;54.73;;;28.03;;
12369;SDS011;6249;52.128;9.986;2023-02-28T19:53:33;36.50;;;20.20;;
12369;SDS011;6249;52.128;9.986;2023-02-28T19:56:57;29.27;;;17.60;;
12369;SDS011;6249;52.128;9.986;2023-02-28T20:00:17;28.00;;;15.27;;
12369;SDS011;6249;52.128;9.986;2023-02-28T20:03:38;27.13;;;13.57;;
12369;SDS011;6249;52.128;9.986;2023-02-28T20:07:00;23.23;;;13.00;;
12369;SDS011;6249;52.128;9.986;2023-02-28T20:10:20;27.07;;;13.77;;
12369;SDS011;6249;52.128;9.986;2023-02-28T20:13:41;28.53;;;14.63;;
12369;SDS011;6249;52.128;9.986;2023-02-28T20:17:05;26.20;;;11.17;;
12369;SDS011;6249;52.128;9.986;2023-02-28T20:20:28;27.53;;;15.53;;
12369;SDS011;6249;52.128;9.986;2023-02-28T20:23:57;24.70;;;13.63;;
12369;SDS011;6249;52.128;9.986;2023-02-28T20:27:20;24.13;;;12.37;;
12369;SDS011;6249;52.128;9.986;2023-02-28T20:30:41;24.33;;;13.63;;
12369;SDS011;6249;52.128;9.986;2023-02-28T20:34:02;31.70;;;17.10;;
12369;SDS011;6249;52.128;9.986;2023-02-28T20:37:24;25.67;;;14.80;;
12369;SDS011;6249;52.128;9.986;2023-02-28T20:40:46;27.83;;;15.70;;
12369;SDS011;6249;52.128;9.986;2023-02-28T20:44:08;29.00;;;15.60;;
12369;SDS011;6249;52.128;9.986;2023-02-28T20:47:31;34.60;;;18.53;;
12369;SDS011;6249;52.128;9.986;2023-02-28T20:50:53;32.23;;;17.60;;
12369;SDS011;6249;52.128;9.986;2023-02-28T20:54:16;28.80;;;15.70;;
12369;SDS011;6249;52.128;9.986;2023-02-28T20:57:39;31.20;;;17.90;;
12369;SDS011;6249;52.128;9.986;2023-02-28T21:04:31;35.30;;;17.17;;
12369;SDS011;6249;52.128;9.986;2023-02-28T21:07:52;33.87;;;18.30;;
12369;SDS011;6249;52.128;9.986;2023-02-28T21:11:16;28.97;;;16.40;;
12369;SDS011;6249;52.128;9.986;2023-02-28T21:14:41;33.50;;;17.03;;
12369;SDS011;6249;52.128;9.986;2023-02-28T21:18:07;25.40;;;14.23;;
12369;SDS011;6249;52.128;9.986;2023-02-28T21:21:30;26.10;;;14.27;;
12369;SDS011;6249;52.128;9.986;2023-02-28T21:24:53;34.77;;;15.90;;
12369;SDS011;6249;52.128;9.986;2023-02-28T21:28:16;29.13;;;15.23;;
12369;SDS011;6249;52.128;9.986;2023-02-28T21:31:36;32.03;;;15.23;;
12369;SDS011;6249;52.128;9.986;2023-02-28T21:34:59;32.50;;;14.53;;
12369;SDS011;6249;52.128;9.986;2023-02-28T21:38:20;32.80;;;14.00;;
12369;SDS011;6249;52.128;9.986;2023-02-28T21:41:41;25.47;;;12.37;;
12369;SDS011;6249;52.128;9.986;2023-02-28T21:45:01;22.93;;;11.10;;
12369;SDS011;6249;52.128;9.986;2023-02-28T21:48:22;17.50;;;10.17;;
12369;SDS011;6249;52.128;9.986;2023-02-28T21:51:45;18.33;;;9.90;;
12369;SDS011;6249;52.128;9.986;2023-02-28T21:55:08;18.83;;;8.77;;
12369;SDS011;6249;52.128;9.986;2023-02-28T21:58:31;35.73;;;18.57;;
12369;SDS011;6249;52.128;9.986;2023-02-28T22:01:52;22.97;;;10.90;;
12369;SDS011;6249;52.128;9.986;2023-02-28T22:05:15;21.50;;;9.97;;
12369;SDS011;6249;52.128;9.986;2023-02-28T22:08:35;19.80;;;10.97;;
12369;SDS011;6249;52.128;9.986;2023-02-28T22:12:01;20.43;;;11.57;;
12369;SDS011;6249;52.128;9.986;2023-02-28T22:15:21;27.17;;;12.53;;
12369;SDS011;6249;52.128;9.986;2023-02-28T22:18:44;23.90;;;12.97;;
12369;SDS011;6249;52.128;9.986;2023-02-28T22:22:08;22.43;;;11.20;;
12369;SDS011;6249;52.128;9.986;2023-02-28T22:25:28;24.67;;;11.67;;
12369;SDS011;6249;52.128;9.986;2023-02-28T22:28:49;26.23;;;12.20;;
12369;SDS011;6249;52.128;9.986;2023-02-28T22:32:10;27.40;;;13.30;;
12369;SDS011;6249;52.128;9.986;2023-02-28T22:35:30;23.07;;;12.13;;
12369;SDS011;6249;52.128;9.986;2023-02-28T22:38:51;28.93;;;12.47;;
12369;SDS011;6249;52.128;9.986;2023-02-28T22:42:14;21.70;;;11.30;;
12369;SDS011;6249;52.128;9.986;2023-02-28T22:45:37;18.73;;;10.17;;
12369;SDS011;6249;52.128;9.986;2023-02-28T22:49:00;22.97;;;10.30;;
12369;SDS011;6249;52.128;9.986;2023-02-28T22:52:23;18.90;;;10.70;;
12369;SDS011;6249;52.128;9.986;2023-02-28T22:55:46;17.03;;;8.93;;
12369;SDS011;6249;52.128;9.986;2023-02-28T22:59:14;19.73;;;8.97;;
12369;SDS011;6249;52.128;9.986;2023-02-28T23:02:37;19.80;;;9.73;;
12369;SDS011;6249;52.128;9.986;2023-02-28T23:05:58;13.57;;;7.50;;
12369;SDS011;6249;52.128;9.986;2023-02-28T23:09:21;13.50;;;7.67;;
12369;SDS011;6249;52.128;9.986;2023-02-28T23:12:41;15.53;;;7.27;;
12369;SDS011;6249;52.128;9.986;2023-02-28T23:16:12;14.27;;;6.13;;
12369;SDS011;6249;52.128;9.986;2023-02-28T23:19:32;12.90;;;6.37;;
12369;SDS011;6249;52.128;9.986;2023-02-28T23:22:53;9.50;;;5.60;;
12369;SDS011;6249;52.128;9.986;2023-02-28T23:26:14;12.30;;;6.40;;
12369;SDS011;6249;52.128;9.986;2023-02-28T23:29:35;11.73;;;5.90;;
12369;SDS011;6249;52.128;9.986;2023-02-28T23:32:57;11.53;;;6.40;;